17:56
Airports
Links
Donate
Help keep this website running!
PayPal
Bitcoin
METAR
LFRO 191730Z AUTO 29009KT 9000 OVC004 09/09 Q1020 BECMG BKN009
Current Weather Conditions at LFRO
LIFR 17:30:00 19-02-18
Automated station, no observer
Altimeter:30.12 hg
Temp:9.0°c 48°f
Dew point:9.0°c 48°f
Wind:9 knots, 10.4 mph, 5 m/s, from 290°
Visibility:5.59 statute miles
400(OVC) Overcast
Past METAR reports
LIFR 17:00:00 19-02-18
Automated station, no observer
Altimeter:30.12 hg
Temp:9.0°c 48°f
Dew point:9.0°c 48°f
Wind:9 knots, 10.4 mph, 5 m/s, from 290°
Visibility:4.97 statute miles
400(OVC) Overcast
LFRO 191700Z AUTO 29009KT 8000 OVC004 09/09 Q1020 BECMG BKN010
LIFR 16:30:00 19-02-18
Automated station, no observer
Altimeter:30.12 hg
Temp:9.0°c 48°f
Dew point:9.0°c 48°f
Wind:10 knots, 11.5 mph, 5 m/s, from 280°
Visibility:4.97 statute miles
400(OVC) Overcast
LFRO 191630Z AUTO 28010KT 8000 OVC004 09/09 Q1020 BECMG BKN010
LIFR 16:00:00 19-02-18
Automated station, no observer
Altimeter:30.12 hg
Temp:9.0°c 48°f
Dew point:9.0°c 48°f
Wind:10 knots, 11.5 mph, 5 m/s, from 290°
Visibility:5.59 statute miles
400(OVC) Overcast
LFRO 191600Z AUTO 29010KT 9000 OVC004 09/09 Q1020 BECMG BKN010
LIFR 15:30:00 19-02-18
Automated station, no observer
Altimeter:30.12 hg
Temp:9.0°c 48°f
Dew point:9.0°c 48°f
Wind:11 knots, 12.7 mph, 6 m/s, from 280°
Visibility:5.59 statute miles
400(OVC) Overcast
LFRO 191530Z AUTO 28011KT 9000 OVC004 09/09 Q1020 BECMG BKN010
LIFR 15:00:00 19-02-18
Automated station, no observer
Altimeter:30.12 hg
Temp:9.0°c 48°f
Dew point:9.0°c 48°f
Wind:9 knots, 10.4 mph, 5 m/s, from 300°
Visibility:5.59 statute miles
300(OVC) Overcast
LFRO 191500Z AUTO 30009KT 270V330 9000 OVC003 09/09 Q1020 BECMG BKN010
LIFR 14:30:00 19-02-18
Automated station, no observer
Altimeter:30.12 hg
Temp:9.0°c 48°f
Dew point:9.0°c 48°f
Wind:10 knots, 11.5 mph, 5 m/s, from 300°
Visibility:1.37 statute miles
200(OVC) Overcast
LFRO 191430Z AUTO 30010KT 2200 BR OVC002 09/09 Q1020 BECMG 9999 NSW BKN010
TAF
TAF LFRO 191700Z 1918/2018 30010KT 9999 BKN009 TEMPO 1922/2010 0500 DZ FG OVC003 TEMPO 2010/2018 36016G26KT BECMG 2010/2012 SCT040
Forecast at LFRO
18:00 19-02-18 to 10:00 20-02-18
Wind:10 Knots from 300°
Visibility:6.21 statute miles
900BKN Broken
TEMPO 22:00 19-02-18 to 10:00 20-02-18
DZ FG
Visibility:0.31 statute miles
300OVC Overcast
TEMPO 10:00 20-02-18 to 18:00 20-02-18
Wind:16 Knots from 360°
BECMG 10:00 20-02-18 to 18:00 20-02-18
Wind:10 Knots from 300°
Visibility:6.21 statute miles
4000SCT Scattered